Time;durP1;ratioP1;P1;durP2;ratioP2;P2;SDS_P1;SDS_P2;PMS_P1;PMS_P2;Temp;Humidity;BMP_temperature;BMP_pressure;BME280_temperature;BME280_humidity;BME280_pressure;Samples;Min_cycle;Max_cycle;Signal;HPM_P1;HPM_P2
2022/02/04 02:46:43;;;;;;;1999.90;999.90;;;;;;;;;;5424471;23;20622;-69
2022/02/04 02:49:51;;;;;;;1999.90;999.90;;;;;;;;;;4911395;29;20231;-68
2022/02/04 02:53:05;;;;;;;1999.90;999.90;;;;;;;;;;4917689;29;20221;-69
2022/02/04 02:56:05;;;;;;;1999.90;999.90;;;;;;;;;;4893602;29;20426;-69
2022/02/04 02:58:56;;;;;;;1999.90;999.90;;;;;;;;;;4882594;29;20207;-68
2022/02/04 03:01:46;;;;;;;1999.90;999.90;;;;;;;;;;4879763;29;20211;-69
2022/02/04 03:04:31;;;;;;;1999.90;999.90;;;;;;;;;;4882061;29;20333;-68
2022/02/04 03:07:16;;;;;;;1999.90;999.90;;;;;;;;;;4897639;29;20230;-69
2022/02/04 03:10:01;;;;;;;1999.90;999.90;;;;;;;;;;4893622;29;20701;-68
2022/02/04 03:12:46;;;;;;;1999.90;999.90;;;;;;;;;;4898377;29;20279;-69
2022/02/04 03:15:31;;;;;;;1999.90;999.90;;;;;;;;;;4896760;29;20363;-65
2022/02/04 03:18:23;;;;;;;1999.90;999.90;;;;;;;;;;4898254;29;20709;-69
2022/02/04 03:21:12;;;;;;;1999.90;999.90;;;;;;;;;;4898437;29;20313;-67
2022/02/04 03:24:02;;;;;;;1999.90;999.90;;;;;;;;;;4898250;29;20210;-69
2022/02/04 03:26:50;;;;;;;1999.90;999.90;;;;;;;;;;4897991;29;20230;-69
2022/02/04 03:29:48;;;;;;;1999.90;999.90;;;;;;;;;;4898200;29;20229;-68
2022/02/04 03:32:37;;;;;;;1999.90;999.90;;;;;;;;;;4895268;29;20203;-68
2022/02/04 03:35:25;;;;;;;1999.90;999.90;;;;;;;;;;4879504;29;20311;-67
2022/02/04 03:38:09;;;;;;;1999.90;999.90;;;;;;;;;;4893109;29;20222;-70
2022/02/04 03:40:54;;;;;;;1999.90;999.90;;;;;;;;;;4895885;29;20278;-69
2022/02/04 03:43:40;;;;;;;1999.90;999.90;;;;;;;;;;4897934;29;20259;-67
2022/02/04 03:46:25;;;;;;;1999.90;999.90;;;;;;;;;;4880433;29;20246;-67
2022/02/04 03:49:09;;;;;;;1999.90;999.90;;;;;;;;;;4879094;29;20218;-69
2022/02/04 03:51:56;;;;;;;1999.90;999.90;;;;;;;;;;4879351;29;20729;-67
2022/02/04 03:54:41;;;;;;;1999.90;999.90;;;;;;;;;;4884639;29;20776;-68
2022/02/04 03:57:26;;;;;;;1999.90;999.90;;;;;;;;;;4893252;29;20279;-69
2022/02/04 04:00:12;;;;;;;1999.90;999.90;;;;;;;;;;4890617;29;20413;-69
2022/02/04 04:02:57;;;;;;;1999.90;999.90;;;;;;;;;;4897591;29;20232;-69
2022/02/04 04:05:46;;;;;;;1999.90;999.90;;;;;;;;;;4897669;29;20226;-69
2022/02/04 04:08:32;;;;;;;1999.90;999.90;;;;;;;;;;4897244;29;20210;-69
2022/02/04 04:11:17;;;;;;;1999.90;999.90;;;;;;;;;;4897613;29;20213;-68
2022/02/04 04:14:04;;;;;;;1999.90;999.90;;;;;;;;;;4883693;29;20226;-70
2022/02/04 04:16:48;;;;;;;1999.90;999.90;;;;;;;;;;4890284;29;20250;-70
2022/02/04 04:19:33;;;;;;;1999.90;999.90;;;;;;;;;;4888794;29;20863;-69
2022/02/04 04:22:18;;;;;;;1999.90;999.90;;;;;;;;;;4889433;29;20239;-69
2022/02/04 04:25:05;;;;;;;1999.90;999.90;;;;;;;;;;4888555;29;20983;-69
2022/02/04 04:27:52;;;;;;;1999.90;999.90;;;;;;;;;;4888830;29;20219;-68
2022/02/04 04:30:38;;;;;;;1999.90;999.90;;;;;;;;;;4894905;29;20294;-69
2022/02/04 04:33:23;;;;;;;1999.90;999.90;;;;;;;;;;4893116;29;20226;-69
2022/02/04 04:36:08;;;;;;;1999.90;999.90;;;;;;;;;;4879832;29;20690;-69
2022/02/04 04:38:59;;;;;;;1999.90;999.90;;;;;;;;;;4896604;29;20282;-68
2022/02/04 04:41:57;;;;;;;1999.90;999.90;;;;;;;;;;4895807;29;20228;-69
2022/02/04 05:30:24;;;;;;;1999.90;999.90;;;;;;;;;;4878027;29;20230;-69
2022/02/04 05:33:10;;;;;;;1999.90;999.90;;;;;;;;;;4890919;29;20214;-69
2022/02/04 05:35:55;;;;;;;1999.90;999.90;;;;;;;;;;4892273;29;20240;-69
2022/02/04 05:38:41;;;;;;;1999.90;999.90;;;;;;;;;;4886140;29;20248;-69
2022/02/04 05:41:30;;;;;;;1999.90;999.90;;;;;;;;;;4894625;29;20724;-69
2022/02/04 05:44:16;;;;;;;1999.90;999.90;;;;;;;;;;4896379;29;20207;-69
2022/02/04 05:47:09;;;;;;;1999.90;999.90;;;;;;;;;;4890251;29;20266;-69
2022/02/04 05:50:10;;;;;;;1999.90;999.90;;;;;;;;;;4887953;29;20222;-69
2022/02/04 05:53:05;;;;;;;1999.90;999.90;;;;;;;;;;4891644;29;20706;-69
2022/02/04 05:55:57;;;;;;;1999.90;999.90;;;;;;;;;;4888510;29;20229;-69
2022/02/04 05:58:53;;;;;;;1999.90;999.90;;;;;;;;;;4896765;29;21107;-69
2022/02/04 06:01:54;;;;;;;1999.90;999.90;;;;;;;;;;4897059;29;20209;-69
2022/02/04 06:04:51;;;;;;;1999.90;999.90;;;;;;;;;;4898936;29;20217;-69
2022/02/04 06:07:50;;;;;;;1999.90;999.90;;;;;;;;;;4899162;29;20621;-69
2022/02/04 06:11:01;;;;;;;1999.90;999.90;;;;;;;;;;4899763;29;20203;-68
2022/02/04 06:14:08;;;;;;;1999.90;999.90;;;;;;;;;;4898710;29;20752;-66
2022/02/04 06:23:00;;;;;;;1999.90;999.90;;;;;;;;;;4899598;29;20209;-68
2022/02/04 06:25:45;;;;;;;1999.90;999.90;;;;;;;;;;4899451;29;20317;-68
2022/02/04 06:28:30;;;;;;;1999.90;999.90;;;;;;;;;;4898930;29;20214;-68
2022/02/04 06:31:15;;;;;;;1999.90;999.90;;;;;;;;;;4898249;29;20217;-69
2022/02/04 06:34:01;;;;;;;1999.90;999.90;;;;;;;;;;4896114;29;20821;-68
2022/02/04 06:36:46;;;;;;;1999.90;999.90;;;;;;;;;;4899276;29;20597;-69
2022/02/04 06:39:31;;;;;;;1999.90;999.90;;;;;;;;;;4897900;29;20211;-67
2022/02/04 06:42:25;;;;;;;1999.90;999.90;;;;;;;;;;4890703;29;20291;-68
2022/02/04 06:45:10;;;;;;;1999.90;999.90;;;;;;;;;;4891508;29;20207;-69
2022/02/04 06:47:55;;;;;;;1999.90;999.90;;;;;;;;;;4895223;29;20294;-67
2022/02/04 06:50:41;;;;;;;1999.90;999.90;;;;;;;;;;4896438;29;20238;-68
2022/02/04 06:53:26;;;;;;;1999.90;999.90;;;;;;;;;;4893947;29;20700;-68
2022/02/04 06:56:11;;;;;;;1999.90;999.90;;;;;;;;;;4896472;29;20238;-68
2022/02/04 06:58:56;;;;;;;1999.90;999.90;;;;;;;;;;4889883;29;20211;-68
2022/02/04 07:01:41;;;;;;;1999.90;999.90;;;;;;;;;;4894285;29;20562;-68
2022/02/04 07:04:30;;;;;;;1999.90;999.90;;;;;;;;;;4898758;29;20213;-69
2022/02/04 07:07:17;;;;;;;1999.90;999.90;;;;;;;;;;4890910;29;20351;-69
2022/02/04 07:10:10;;;;;;;1999.90;999.90;;;;;;;;;;4897033;29;20214;-68
2022/02/04 07:13:03;;;;;;;1999.90;999.90;;;;;;;;;;4889613;29;20706;-68
2022/02/04 07:15:53;;;;;;;1999.90;999.90;;;;;;;;;;4898273;29;20234;-69
2022/02/04 07:21:41;;;;;;;1999.90;999.90;;;;;;;;;;4898679;29;20706;-69
2022/02/04 07:24:27;;;;;;;1999.90;999.90;;;;;;;;;;4898633;29;20202;-69
2022/02/04 07:27:12;;;;;;;1999.90;999.90;;;;;;;;;;4898426;29;20230;-68
2022/02/04 07:29:57;;;;;;;1999.90;999.90;;;;;;;;;;4898079;29;20211;-68
2022/02/04 07:32:50;;;;;;;1999.90;999.90;;;;;;;;;;4898507;29;20217;-68
2022/02/04 07:38:35;;;;;;;1999.90;999.90;;;;;;;;;;4898082;29;20233;-69
2022/02/04 07:40:52;;;;;;;1999.90;999.90;;;;;;;;;;4897706;29;20568;-68
2022/02/04 07:41:59;;;;;;;1999.90;999.90;;;;;;;;;;4898154;29;20285;-68
2022/02/04 07:44:44;;;;;;;1999.90;999.90;;;;;;;;;;4898083;29;20231;-68
2022/02/04 07:47:28;;;;;;;1999.90;999.90;;;;;;;;;;4897124;29;20723;-67
2022/02/04 07:50:13;;;;;;;1999.90;999.90;;;;;;;;;;4897341;29;20341;-66
2022/02/04 07:52:58;;;;;;;1999.90;999.90;;;;;;;;;;4879407;29;20714;-66
2022/02/04 07:55:43;;;;;;;1999.90;999.90;;;;;;;;;;4878983;29;20239;-69
2022/02/04 07:58:30;;;;;;;1999.90;999.90;;;;;;;;;;4878681;29;20211;-67
2022/02/04 08:01:19;;;;;;;1999.90;999.90;;;;;;;;;;4879263;29;20215;-68
2022/02/04 08:04:10;;;;;;;1999.90;999.90;;;;;;;;;;4879376;29;20563;-68
2022/02/04 08:07:00;;;;;;;1999.90;999.90;;;;;;;;;;4891005;29;20226;-68
2022/02/04 08:09:59;;;;;;;1999.90;999.90;;;;;;;;;;4897149;29;20213;-68
2022/02/04 08:13:12;;;;;;;1999.90;999.90;;;;;;;;;;4896164;29;20779;-69
2022/02/04 08:16:23;;;;;;;1999.90;999.90;;;;;;;;;;4896460;29;20234;-69
2022/02/04 08:34:49;;;;;;;1999.90;999.90;;;;;;;;;;4884504;29;20229;-67
2022/02/04 08:37:58;;;;;;;1999.90;999.90;;;;;;;;;;4897131;29;20700;-66
2022/02/04 08:47:11;;;;;;;1999.90;999.90;;;;;;;;;;4902484;29;20304;-67
2022/02/04 08:50:26;;;;;;;1999.90;999.90;;;;;;;;;;4895885;29;20344;-67
2022/02/04 08:56:11;;;;;;;1999.90;999.90;;;;;;;;;;4898454;29;20274;-68
2022/02/04 08:59:00;;;;;;;1999.90;999.90;;;;;;;;;;4904717;29;20266;-67
2022/02/04 09:01:52;;;;;;;1999.90;999.90;;;;;;;;;;4895958;29;20773;-67
2022/02/04 09:04:42;;;;;;;1999.90;999.90;;;;;;;;;;4895951;29;20205;-67
2022/02/04 09:07:34;;;;;;;1999.90;999.90;;;;;;;;;;4905497;29;20640;-67
2022/02/04 09:10:23;;;;;;;1999.90;999.90;;;;;;;;;;4908230;29;20213;-68
2022/02/04 09:19:21;;;;;;;1999.90;999.90;;;;;;;;;;4903343;29;20201;-68
2022/02/04 09:22:19;;;;;;;1999.90;999.90;;;;;;;;;;4901652;29;20212;-69
2022/02/04 09:25:05;;;;;;;1999.90;999.90;;;;;;;;;;4896434;29;20585;-69
2022/02/04 09:27:50;;;;;;;1999.90;999.90;;;;;;;;;;4903078;29;20342;-68
2022/02/04 09:30:35;;;;;;;1999.90;999.90;;;;;;;;;;4901636;29;20218;-69
2022/02/04 09:33:20;;;;;;;1999.90;999.90;;;;;;;;;;4903734;29;20207;-68
2022/02/04 09:36:05;;;;;;;1999.90;999.90;;;;;;;;;;4901237;29;20812;-69
2022/02/04 09:38:51;;;;;;;1999.90;999.90;;;;;;;;;;4900987;29;20302;-68
2022/02/04 09:41:36;;;;;;;1999.90;999.90;;;;;;;;;;4907472;29;20358;-69
2022/02/04 09:44:21;;;;;;;1999.90;999.90;;;;;;;;;;4913392;29;20288;-69
2022/02/04 09:47:06;;;;;;;1999.90;999.90;;;;;;;;;;4909923;29;20245;-69
2022/02/04 09:49:56;;;;;;;1999.90;999.90;;;;;;;;;;4903036;29;20388;-70
2022/02/04 10:08:04;;;;;;;1999.90;999.90;;;;;;;;;;4906093;29;20254;-68
2022/02/04 10:12:01;;;;;;;1999.90;999.90;;;;;;;;;;4909423;29;20201;-69
2022/02/04 10:14:38;;;;;;;1999.90;999.90;;;;;;;;;;4902211;29;20289;-69
2022/02/04 10:17:26;;;;;;;1999.90;999.90;;;;;;;;;;4913737;29;20570;-69
2022/02/04 10:20:13;;;;;;;1999.90;999.90;;;;;;;;;;4898495;29;20211;-69
2022/02/04 10:22:58;;;;;;;1999.90;999.90;;;;;;;;;;4907035;29;20217;-68
2022/02/04 10:25:43;;;;;;;1999.90;999.90;;;;;;;;;;4915559;29;20297;-68
2022/02/04 10:28:29;;;;;;;1999.90;999.90;;;;;;;;;;4906298;29;20219;-69
2022/02/04 10:31:21;;;;;;;1999.90;999.90;;;;;;;;;;4894832;29;20438;-69
2022/02/04 10:34:10;;;;;;;1999.90;999.90;;;;;;;;;;4907954;29;20212;-69
2022/02/04 10:37:00;;;;;;;1999.90;999.90;;;;;;;;;;4899152;29;20604;-69
2022/02/04 10:39:55;;;;;;;1999.90;999.90;;;;;;;;;;4903918;29;20286;-68
2022/02/04 10:42:56;;;;;;;1999.90;999.90;;;;;;;;;;4897784;29;20347;-67
2022/02/04 10:45:55;;;;;;;1999.90;999.90;;;;;;;;;;4898601;29;20266;-67
2022/02/04 10:58:18;;;;;;;1999.90;999.90;;;;;;;;;;4885126;29;20697;-69
2022/02/04 11:01:18;;;;;;;1999.90;999.90;;;;;;;;;;4902220;29;20239;-68
2022/02/04 11:04:12;;;;;;;1999.90;999.90;;;;;;;;;;4906534;29;20283;-69
2022/02/04 11:07:13;;;;;;;1999.90;999.90;;;;;;;;;;4898330;29;20307;-69
2022/02/04 11:10:11;;;;;;;1999.90;999.90;;;;;;;;;;4897061;29;20510;-69
2022/02/04 11:31:36;;;;;;;1999.90;999.90;;;;;;;;;;4891979;29;20789;-69
2022/02/04 11:34:26;;;;;;;1999.90;999.90;;;;;;;;;;4893741;29;20215;-70
2022/02/04 11:43:48;;;;;;;1999.90;999.90;;;;;;;;;;4889472;29;20251;-70
2022/02/04 11:52:46;;;;;;;1999.90;999.90;;;;;;;;;;4897559;29;20243;-70
2022/02/04 11:55:33;;;;;;;1999.90;999.90;;;;;;;;;;4897574;29;20230;-70
2022/02/04 11:58:17;;;;;;;1999.90;999.90;;;;;;;;;;4897449;29;20470;-70
2022/02/04 12:01:04;;;;;;;1999.90;999.90;;;;;;;;;;4897644;29;20215;-70
2022/02/04 12:03:49;;;;;;;1999.90;999.90;;;;;;;;;;4897755;29;20218;-70
2022/02/04 12:06:36;;;;;;;1999.90;999.90;;;;;;;;;;4907855;29;20633;-69
2022/02/04 12:09:36;;;;;;;1999.90;999.90;;;;;;;;;;4878738;29;20264;-69
2022/02/04 12:12:36;;;;;;;1999.90;999.90;;;;;;;;;;4881741;29;20672;-70
2022/02/04 12:15:35;;;;;;;1999.90;999.90;;;;;;;;;;4892609;29;20673;-69
2022/02/04 12:18:20;;;;;;;1999.90;999.90;;;;;;;;;;4896366;29;20195;-69
2022/02/04 12:21:05;;;;;;;1999.90;999.90;;;;;;;;;;4895699;29;20310;-69
2022/02/04 12:23:51;;;;;;;1999.90;999.90;;;;;;;;;;4895038;29;20769;-70
2022/02/04 12:26:36;;;;;;;1999.90;999.90;;;;;;;;;;4892671;29;20601;-70
2022/02/04 12:29:27;;;;;;;1999.90;999.90;;;;;;;;;;4883969;29;20276;-70
2022/02/04 12:32:18;;;;;;;1999.90;999.90;;;;;;;;;;4887785;29;20219;-69
2022/02/04 12:35:03;;;;;;;1999.90;999.90;;;;;;;;;;4890812;29;20226;-70
2022/02/04 12:37:48;;;;;;;1999.90;999.90;;;;;;;;;;4892942;29;20350;-70
2022/02/04 12:40:33;;;;;;;1999.90;999.90;;;;;;;;;;4878519;29;20215;-69
2022/02/04 12:43:24;;;;;;;1999.90;999.90;;;;;;;;;;4878356;29;20671;-70
2022/02/04 12:46:09;;;;;;;1999.90;999.90;;;;;;;;;;4878341;29;20242;-72
2022/02/04 12:49:00;;;;;;;1999.90;999.90;;;;;;;;;;4878041;29;20337;-69
2022/02/04 12:51:51;;;;;;;1999.90;999.90;;;;;;;;;;4896755;29;20731;-69
2022/02/04 12:54:39;;;;;;;1999.90;999.90;;;;;;;;;;4902022;29;20579;-69
2022/02/04 12:57:33;;;;;;;1999.90;999.90;;;;;;;;;;4898850;29;20290;-70
2022/02/04 13:00:36;;;;;;;1999.90;999.90;;;;;;;;;;4897100;29;20990;-70
2022/02/04 13:03:31;;;;;;;1999.90;999.90;;;;;;;;;;4896569;29;20449;-71
2022/02/04 13:12:23;;;;;;;1999.90;999.90;;;;;;;;;;4901053;29;20718;-70
2022/02/04 13:15:12;;;;;;;1999.90;999.90;;;;;;;;;;4895294;29;20302;-69
2022/02/04 13:17:57;;;;;;;1999.90;999.90;;;;;;;;;;4900567;29;20347;-70
2022/02/04 13:20:43;;;;;;;1999.90;999.90;;;;;;;;;;4912890;29;20209;-70
2022/02/04 13:23:31;;;;;;;1999.90;999.90;;;;;;;;;;4900947;29;20336;-70
2022/02/04 13:26:21;;;;;;;1999.90;999.90;;;;;;;;;;4902646;29;20689;-70
2022/02/04 13:29:08;;;;;;;1999.90;999.90;;;;;;;;;;4894824;29;20443;-71
2022/02/04 13:31:53;;;;;;;1999.90;999.90;;;;;;;;;;4896707;29;20633;-71
2022/02/04 13:34:37;;;;;;;1999.90;999.90;;;;;;;;;;4896485;29;20202;-68
2022/02/04 13:37:27;;;;;;;1999.90;999.90;;;;;;;;;;4884928;29;20206;-69
2022/02/04 13:40:20;;;;;;;1999.90;999.90;;;;;;;;;;4877797;29;20787;-71
2022/02/04 13:43:20;;;;;;;1999.90;999.90;;;;;;;;;;4890952;29;20230;-71
2022/02/04 13:46:15;;;;;;;1999.90;999.90;;;;;;;;;;4894014;29;20238;-71
2022/02/04 13:49:13;;;;;;;1999.90;999.90;;;;;;;;;;4883617;29;20563;-70
2022/02/04 13:52:03;;;;;;;1999.90;999.90;;;;;;;;;;4891531;29;20215;-71
2022/02/04 13:55:09;;;;;;;1999.90;999.90;;;;;;;;;;4896504;29;20722;-69
2022/02/04 13:58:10;;;;;;;1999.90;999.90;;;;;;;;;;4884387;29;20204;-69
2022/02/04 14:01:03;;;;;;;1999.90;999.90;;;;;;;;;;4887455;29;20206;-70
2022/02/04 14:03:51;;;;;;;1999.90;999.90;;;;;;;;;;4896420;29;20585;-68
2022/02/04 14:06:37;;;;;;;1999.90;999.90;;;;;;;;;;4895271;29;20234;-69
2022/02/04 14:09:22;;;;;;;1999.90;999.90;;;;;;;;;;4896181;29;20203;-70
2022/02/04 14:12:14;;;;;;;1999.90;999.90;;;;;;;;;;4898079;29;20701;-69
2022/02/04 14:15:01;;;;;;;1999.90;999.90;;;;;;;;;;4899728;29;20289;-70
2022/02/04 14:17:55;;;;;;;1999.90;999.90;;;;;;;;;;4899518;29;20226;-70
2022/02/04 14:20:41;;;;;;;1999.90;999.90;;;;;;;;;;4899449;29;20210;-70
2022/02/04 14:23:26;;;;;;;1999.90;999.90;;;;;;;;;;4899687;29;20343;-70
2022/02/04 14:26:17;;;;;;;1999.90;999.90;;;;;;;;;;4899543;29;20253;-70
2022/02/04 14:29:08;;;;;;;1999.90;999.90;;;;;;;;;;4899171;29;20417;-69
2022/02/04 14:31:59;;;;;;;1999.90;999.90;;;;;;;;;;4899574;29;20334;-70
2022/02/04 14:34:58;;;;;;;1999.90;999.90;;;;;;;;;;4899222;29;20218;-70
2022/02/04 14:53:07;;;;;;;1999.90;999.90;;;;;;;;;;4898891;29;20213;-69
2022/02/04 14:59:52;;;;;;;1999.90;999.90;;;;;;;;;;4858163;29;20932;-68
2022/02/04 15:02:28;;;;;;;1999.90;999.90;;;;;;;;;;4859137;29;20258;-67
2022/02/04 15:05:17;;;;;;;1999.90;999.90;;;;;;;;;;4898838;29;20705;-68
2022/02/04 15:08:06;;;;;;;1999.90;999.90;;;;;;;;;;4898550;29;20203;-67
2022/02/04 15:10:51;;;;;;;1999.90;999.90;;;;;;;;;;4898986;29;20209;-68
2022/02/04 15:13:36;;;;;;;1999.90;999.90;;;;;;;;;;4898867;29;20206;-68
2022/02/04 15:16:21;;;;;;;1999.90;999.90;;;;;;;;;;4898726;29;20243;-69
2022/02/04 15:19:08;;;;;;;1999.90;999.90;;;;;;;;;;4898623;29;20226;-69
2022/02/04 15:21:54;;;;;;;1999.90;999.90;;;;;;;;;;4898737;29;20242;-68
2022/02/04 15:24:39;;;;;;;1999.90;999.90;;;;;;;;;;4897374;29;20206;-68
2022/02/04 15:27:26;;;;;;;1999.90;999.90;;;;;;;;;;4898233;29;20198;-68
2022/02/04 15:30:18;;;;;;;1999.90;999.90;;;;;;;;;;4898319;29;20754;-68
2022/02/04 15:33:03;;;;;;;1999.90;999.90;;;;;;;;;;4898412;29;20207;-68
2022/02/04 15:35:49;;;;;;;1999.90;999.90;;;;;;;;;;4898178;29;20317;-68
2022/02/04 15:38:34;;;;;;;1999.90;999.90;;;;;;;;;;4898034;29;20210;-69
2022/02/04 15:41:21;;;;;;;1999.90;999.90;;;;;;;;;;4898260;29;20281;-68
2022/02/04 15:44:12;;;;;;;1999.90;999.90;;;;;;;;;;4898234;29;20321;-67
2022/02/04 15:50:15;;;;;;;1999.90;999.90;;;;;;;;;;4897602;29;20203;-69
2022/02/04 15:53:20;;;;;;;1999.90;999.90;;;;;;;;;;4898083;29;20210;-69
2022/02/04 15:56:24;;;;;;;1999.90;999.90;;;;;;;;;;4897913;29;20226;-69
2022/02/04 15:59:26;;;;;;;1999.90;999.90;;;;;;;;;;4897666;29;20294;-67
2022/02/04 16:02:25;;;;;;;1999.90;999.90;;;;;;;;;;4896605;29;20898;-68
2022/02/04 16:05:11;;;;;;;1999.90;999.90;;;;;;;;;;4897711;29;20338;-69
2022/02/04 16:07:57;;;;;;;1999.90;999.90;;;;;;;;;;4897228;29;20206;-67
2022/02/04 16:10:53;;;;;;;1999.90;999.90;;;;;;;;;;4897699;29;20202;-68
2022/02/04 16:13:44;;;;;;;1999.90;999.90;;;;;;;;;;4897590;29;20755;-68
2022/02/04 16:16:33;;;;;;;1999.90;999.90;;;;;;;;;;4897351;29;20226;-68
2022/02/04 16:19:28;;;;;;;1999.90;999.90;;;;;;;;;;4897317;29;20214;-69
2022/02/04 16:22:29;;;;;;;1999.90;999.90;;;;;;;;;;4898974;29;20265;-68
2022/02/04 16:25:29;;;;;;;1999.90;999.90;;;;;;;;;;4897403;29;20261;-69
2022/02/04 16:31:19;;;;;;;1999.90;999.90;;;;;;;;;;4897119;29;20343;-67
2022/02/04 16:34:09;;;;;;;1999.90;999.90;;;;;;;;;;4896898;29;20291;-69
2022/02/04 16:36:56;;;;;;;1999.90;999.90;;;;;;;;;;4897130;29;20238;-68
2022/02/04 16:39:42;;;;;;;1999.90;999.90;;;;;;;;;;4896979;29;20214;-68
2022/02/04 16:42:28;;;;;;;1999.90;999.90;;;;;;;;;;4897256;29;20294;-68
2022/02/04 16:45:15;;;;;;;1999.90;999.90;;;;;;;;;;4897013;29;20214;-68
2022/02/04 16:48:00;;;;;;;1999.90;999.90;;;;;;;;;;4896699;29;20270;-68
2022/02/04 16:50:45;;;;;;;1999.90;999.90;;;;;;;;;;4897147;29;20693;-68
2022/02/04 16:53:30;;;;;;;1999.90;999.90;;;;;;;;;;4897119;29;20251;-67
2022/02/04 16:56:15;;;;;;;1999.90;999.90;;;;;;;;;;4896662;29;20314;-68
2022/02/04 16:59:00;;;;;;;1999.90;999.90;;;;;;;;;;4896774;29;20206;-69
2022/02/04 17:01:47;;;;;;;1999.90;999.90;;;;;;;;;;4897071;29;20267;-70
2022/02/04 17:04:32;;;;;;;1999.90;999.90;;;;;;;;;;4896819;29;20210;-69
2022/02/04 17:07:21;;;;;;;1999.90;999.90;;;;;;;;;;4896946;29;20299;-67
2022/02/04 17:10:09;;;;;;;1999.90;999.90;;;;;;;;;;4896883;29;20698;-68
2022/02/04 17:12:59;;;;;;;1999.90;999.90;;;;;;;;;;4896828;29;20316;-69
2022/02/04 17:15:44;;;;;;;1999.90;999.90;;;;;;;;;;4896551;29;20231;-68
2022/02/04 17:18:30;;;;;;;1999.90;999.90;;;;;;;;;;4896573;29;20210;-68
2022/02/04 17:21:22;;;;;;;1999.90;999.90;;;;;;;;;;4896916;29;20214;-68
2022/02/04 17:24:11;;;;;;;1999.90;999.90;;;;;;;;;;4896846;29;20263;-69
2022/02/04 17:26:56;;;;;;;1999.90;999.90;;;;;;;;;;4896750;29;20593;-69
2022/02/04 17:29:41;;;;;;;1999.90;999.90;;;;;;;;;;4896414;29;20331;-69
2022/02/04 17:32:27;;;;;;;1999.90;999.90;;;;;;;;;;4895881;29;20441;-69
2022/02/04 17:35:14;;;;;;;1999.90;999.90;;;;;;;;;;4896690;29;20210;-69
2022/02/04 17:38:01;;;;;;;1999.90;999.90;;;;;;;;;;4896190;29;20606;-69
2022/02/04 17:40:46;;;;;;;1999.90;999.90;;;;;;;;;;4896724;29;20606;-69
2022/02/04 17:43:31;;;;;;;1999.90;999.90;;;;;;;;;;4896634;29;20378;-68
2022/02/04 17:46:16;;;;;;;1999.90;999.90;;;;;;;;;;4896818;29;20400;-68
2022/02/04 17:49:10;;;;;;;1999.90;999.90;;;;;;;;;;4899784;29;20207;-68
2022/02/04 17:52:01;;;;;;;1999.90;999.90;;;;;;;;;;4900261;29;20210;-67
2022/02/04 17:54:53;;;;;;;1999.90;999.90;;;;;;;;;;4900035;29;20766;-69
2022/02/04 17:57:42;;;;;;;1999.90;999.90;;;;;;;;;;4900148;29;20218;-67
2022/02/04 18:00:56;;;;;;;1999.90;999.90;;;;;;;;;;4898750;29;20391;-67
2022/02/04 18:09:46;;;;;;;1999.90;999.90;;;;;;;;;;4896037;29;20242;-68
2022/02/04 18:12:35;;;;;;;1999.90;999.90;;;;;;;;;;4899847;29;20312;-68
2022/02/04 18:15:20;;;;;;;1999.90;999.90;;;;;;;;;;4899786;29;20227;-67
2022/02/04 18:18:05;;;;;;;1999.90;999.90;;;;;;;;;;4899246;29;20753;-68
2022/02/04 18:20:49;;;;;;;1999.90;999.90;;;;;;;;;;4899741;29;20198;-68
2022/02/04 18:23:34;;;;;;;1999.90;999.90;;;;;;;;;;4899719;29;20267;-68
2022/02/04 18:26:20;;;;;;;1999.90;999.90;;;;;;;;;;4899528;29;20231;-68
2022/02/04 18:29:06;;;;;;;1999.90;999.90;;;;;;;;;;4899265;29;20594;-67
2022/02/04 18:31:51;;;;;;;1999.90;999.90;;;;;;;;;;4899600;29;20433;-67
2022/02/04 18:34:36;;;;;;;1999.90;999.90;;;;;;;;;;4899275;29;20721;-69
2022/02/04 18:37:30;;;;;;;1999.90;999.90;;;;;;;;;;4899208;29;20603;-68
2022/02/04 18:43:37;;;;;;;1999.90;999.90;;;;;;;;;;4867689;29;20294;-67
2022/02/04 18:59:49;;;;;;;1999.90;999.90;;;;;;;;;;5109154;27;20541;-67
2022/02/04 19:02:37;;;;;;;1999.90;999.90;;;;;;;;;;5109375;28;20223;-67
2022/02/04 19:05:25;;;;;;;1999.90;999.90;;;;;;;;;;5109577;28;20218;-67
2022/02/04 19:08:13;;;;;;;1999.90;999.90;;;;;;;;;;5109093;28;20215;-67
2022/02/04 19:10:59;;;;;;;1999.90;999.90;;;;;;;;;;5109542;28;20199;-67
2022/02/04 19:13:53;;;;;;;1999.90;999.90;;;;;;;;;;5109423;28;20203;-68
2022/02/04 19:16:48;;;;;;;1999.90;999.90;;;;;;;;;;5109343;28;20219;-67
2022/02/04 19:19:45;;;;;;;1999.90;999.90;;;;;;;;;;5109252;28;20204;-67
2022/02/04 19:22:34;;;;;;;1999.90;999.90;;;;;;;;;;5109094;28;20672;-67
2022/02/04 19:25:23;;;;;;;1999.90;999.90;;;;;;;;;;5109118;28;20729;-67
2022/02/04 19:28:10;;;;;;;1999.90;999.90;;;;;;;;;;5108703;28;20238;-68
2022/02/04 19:30:58;;;;;;;1999.90;999.90;;;;;;;;;;5108019;28;20400;-68
2022/02/04 19:33:46;;;;;;;1999.90;999.90;;;;;;;;;;5109085;28;20207;-68
2022/02/04 19:36:31;;;;;;;1999.90;999.90;;;;;;;;;;5108769;28;20215;-68
2022/02/04 19:39:16;;;;;;;1999.90;999.90;;;;;;;;;;5109228;28;20245;-68
2022/02/04 19:42:04;;;;;;;1999.90;999.90;;;;;;;;;;5108929;28;20211;-68
2022/02/04 19:44:53;;;;;;;1999.90;999.90;;;;;;;;;;5108976;28;20567;-68
2022/02/04 19:47:46;;;;;;;1999.90;999.90;;;;;;;;;;5108364;28;20224;-68
2022/02/04 19:50:39;;;;;;;1999.90;999.90;;;;;;;;;;5108837;28;20729;-68
2022/02/04 19:53:44;;;;;;;1999.90;999.90;;;;;;;;;;5108762;28;20199;-68
2022/02/04 20:24:29;;;;;;;1999.90;999.90;;;;;;;;;;5094330;28;20731;-67
2022/02/04 20:27:10;;;;;;;1999.90;999.90;;;;;;;;;;5094074;28;20430;-67
2022/02/04 20:29:55;;;;;;;1999.90;999.90;;;;;;;;;;5094220;28;20223;-67
2022/02/04 20:32:41;;;;;;;1999.90;999.90;;;;;;;;;;5094416;28;20208;-67
2022/02/04 20:35:26;;;;;;;1999.90;999.90;;;;;;;;;;5093330;28;20417;-67
2022/02/04 20:38:16;;;;;;;1999.90;999.90;;;;;;;;;;5093952;28;20196;-67
2022/02/04 20:41:09;;;;;;;1999.90;999.90;;;;;;;;;;5094454;28;20252;-67
2022/02/04 20:43:54;;;;;;;1999.90;999.90;;;;;;;;;;5094209;28;20200;-67
2022/02/04 20:46:39;;;;;;;1999.90;999.90;;;;;;;;;;5094089;28;20216;-68
2022/02/04 20:49:24;;;;;;;1999.90;999.90;;;;;;;;;;5093508;28;20227;-67
2022/02/04 20:52:09;;;;;;;1999.90;999.90;;;;;;;;;;5094294;28;20568;-66
2022/02/04 20:54:55;;;;;;;1999.90;999.90;;;;;;;;;;5093875;28;20250;-68
2022/02/04 20:57:42;;;;;;;1999.90;999.90;;;;;;;;;;5093648;28;20628;-67
2022/02/04 21:00:30;;;;;;;1999.90;999.90;;;;;;;;;;5093853;28;20303;-68
2022/02/04 21:03:15;;;;;;;1999.90;999.90;;;;;;;;;;5092359;28;20954;-68
2022/02/04 21:06:04;;;;;;;1999.90;999.90;;;;;;;;;;5093674;28;20301;-67
2022/02/04 21:09:39;;;;;;;1999.90;999.90;;;;;;;;;;5093263;28;20780;-68
2022/02/04 21:15:21;;;;;;;1999.90;999.90;;;;;;;;;;5093291;28;20703;-67
2022/02/04 21:18:07;;;;;;;1999.90;999.90;;;;;;;;;;5093279;28;20302;-68
2022/02/04 21:20:52;;;;;;;1999.90;999.90;;;;;;;;;;5093491;28;20723;-67
2022/02/04 21:23:36;;;;;;;1999.90;999.90;;;;;;;;;;5093401;28;20206;-67
2022/02/04 21:26:21;;;;;;;1999.90;999.90;;;;;;;;;;5093509;28;20714;-68
2022/02/04 21:29:08;;;;;;;1999.90;999.90;;;;;;;;;;5092764;28;20378;-68
2022/02/04 21:31:53;;;;;;;1999.90;999.90;;;;;;;;;;5093007;28;20208;-68
2022/02/04 21:37:41;;;;;;;1999.90;999.90;;;;;;;;;;5092990;28;20222;-67
2022/02/04 21:40:26;;;;;;;1999.90;999.90;;;;;;;;;;5092913;28;20203;-67
2022/02/04 21:43:11;;;;;;;1999.90;999.90;;;;;;;;;;5093089;28;20229;-68
2022/02/04 21:46:06;;;;;;;1999.90;999.90;;;;;;;;;;5092941;28;20348;-67
2022/02/04 21:48:53;;;;;;;1999.90;999.90;;;;;;;;;;5092455;28;20213;-68
2022/02/04 21:51:38;;;;;;;1999.90;999.90;;;;;;;;;;5092854;28;20739;-67
2022/02/04 21:54:23;;;;;;;1999.90;999.90;;;;;;;;;;5092858;28;20229;-68
2022/02/04 21:57:08;;;;;;;1999.90;999.90;;;;;;;;;;5092748;28;20225;-67
2022/02/04 21:59:53;;;;;;;1999.90;999.90;;;;;;;;;;5092495;28;20702;-68
